In Rescue
 
Open Full Screen Window  High Contrast Mode
April 02, 2020 11:15 PM EDT
Weather Information
Wind Direction
  ---
Wind Speed
  00 kt (0 mph)
Wind Gust
  00 kt (0 mph)
Altimeter
30.07 in
Visibility
10 SM
Temperature
02° C
36° F
Dewpoint
-02° C
28° F
Humidity
75%
Sky Condition
Clear
VFR

METAR KCFS 030315Z AUTO 00000KT 10SM CLR 02/M02 A3007 RMK AO2 T00241025

FAA Disclaimer: The data displayed is for advisory purposes only and is not to be used for flight planning or operations.